createdAt,value
2019-03-06T00:02:20.379Z,8.27
2019-03-06T00:04:47.891Z,8.10
2019-03-06T00:07:15.319Z,8.12
2019-03-06T00:09:42.729Z,8.20
2019-03-06T00:12:10.115Z,8.19
2019-03-06T00:14:37.519Z,8.27
2019-03-06T00:17:04.942Z,8.29
2019-03-06T00:19:32.385Z,8.40
2019-03-06T00:22:00.233Z,8.53
2019-03-06T00:24:27.650Z,8.54
2019-03-06T00:26:55.169Z,8.56
2019-03-06T00:29:22.717Z,8.57
2019-03-06T00:31:50.111Z,8.59
2019-03-06T00:34:17.522Z,8.61
2019-03-06T00:36:44.981Z,8.51
2019-03-06T00:39:12.392Z,8.38
2019-03-06T00:41:39.847Z,8.34
2019-03-06T00:44:07.280Z,8.24
2019-03-06T00:46:34.696Z,8.24
2019-03-06T00:49:02.139Z,8.21
2019-03-06T00:51:29.547Z,8.11
2019-03-06T00:53:56.968Z,8.09
2019-03-06T00:56:24.476Z,8.01
2019-03-06T00:58:51.896Z,8.11
2019-03-06T01:01:19.549Z,8.22
2019-03-06T01:03:46.959Z,8.27
2019-03-06T01:06:14.377Z,8.25
2019-03-06T01:08:41.779Z,8.29
2019-03-06T01:11:09.210Z,8.10
2019-03-06T01:13:36.622Z,7.95
2019-03-06T01:16:04.067Z,7.75
2019-03-06T01:18:31.463Z,7.48
2019-03-06T01:20:59.019Z,7.40
2019-03-06T01:23:26.434Z,7.50
2019-03-06T01:25:53.860Z,7.54
2019-03-06T01:28:21.264Z,7.46
2019-03-06T01:30:48.671Z,7.32
2019-03-06T01:33:16.295Z,7.20
2019-03-06T01:35:45.434Z,7.26
2019-03-06T01:38:23.570Z,7.20
2019-03-06T01:40:56.516Z,7.33
2019-03-06T01:43:28.360Z,7.53
2019-03-06T01:45:55.776Z,7.71
2019-03-06T01:48:23.472Z,7.83
2019-03-06T01:50:50.865Z,7.82
2019-03-06T01:53:18.346Z,7.76
2019-03-06T01:55:45.764Z,7.76
2019-03-06T01:58:13.292Z,7.72
2019-03-06T02:00:40.705Z,7.64
2019-03-06T02:03:08.299Z,7.41
2019-03-06T02:05:35.718Z,7.34
2019-03-06T02:08:03.110Z,7.33
2019-03-06T02:10:30.524Z,7.32
2019-03-06T02:12:57.956Z,7.43
2019-03-06T02:15:25.362Z,7.53
2019-03-06T02:17:52.777Z,7.50
2019-03-06T02:20:20.258Z,7.40
2019-03-06T02:22:47.628Z,7.25
2019-03-06T02:25:15.108Z,7.05
2019-03-06T02:27:42.507Z,7.08
2019-03-06T02:30:09.909Z,7.20
2019-03-06T02:32:37.572Z,7.17
2019-03-06T02:35:05.053Z,7.27
2019-03-06T02:37:32.462Z,7.37
2019-03-06T02:39:59.863Z,7.36
2019-03-06T02:42:27.263Z,7.38
2019-03-06T02:44:54.663Z,7.30
2019-03-06T02:47:22.063Z,7.22
2019-03-06T02:49:49.463Z,7.20
2019-03-06T02:52:16.930Z,7.15
2019-03-06T02:54:44.306Z,7.24
2019-03-06T02:57:11.724Z,7.24
2019-03-06T02:59:39.128Z,7.04
2019-03-06T03:02:06.577Z,6.83
2019-03-06T03:04:34.820Z,6.75
2019-03-06T03:07:02.231Z,6.61
2019-03-06T03:09:29.675Z,6.62
2019-03-06T03:11:57.078Z,6.75
2019-03-06T03:14:24.518Z,6.72
2019-03-06T03:16:51.919Z,6.61
2019-03-06T03:19:19.339Z,6.57
2019-03-06T03:21:46.748Z,6.52
2019-03-06T03:24:14.216Z,6.49
2019-03-06T03:26:41.657Z,6.59
2019-03-06T03:29:09.052Z,6.60
2019-03-06T03:31:36.520Z,6.59
2019-03-06T03:34:03.943Z,6.61
2019-03-06T03:36:31.371Z,6.73
2019-03-06T03:38:58.807Z,6.88
2019-03-06T03:41:26.211Z,6.97
2019-03-06T03:43:53.710Z,7.02
2019-03-06T03:46:21.129Z,6.95
2019-03-06T03:48:48.564Z,6.82
2019-03-06T03:51:16.118Z,6.66
2019-03-06T03:53:43.544Z,6.51
2019-03-06T03:56:11.045Z,6.51
2019-03-06T03:58:38.458Z,6.51
2019-03-06T04:01:05.862Z,6.60
2019-03-06T04:03:33.275Z,6.55
2019-03-06T04:06:00.690Z,6.53
2019-03-06T04:08:28.118Z,6.56
2019-03-06T04:10:55.529Z,6.77
2019-03-06T04:13:22.992Z,6.87
2019-03-06T04:15:50.337Z,6.64
2019-03-06T04:18:17.801Z,6.51
2019-03-06T04:20:45.210Z,6.66
2019-03-06T04:23:12.689Z,6.70
2019-03-06T04:25:40.126Z,6.66
2019-03-06T04:28:07.567Z,6.73
2019-03-06T04:30:35.036Z,6.74
2019-03-06T04:33:03.431Z,6.59
2019-03-06T04:35:30.976Z,6.59
2019-03-06T04:37:58.366Z,6.67
2019-03-06T04:40:25.807Z,6.70
2019-03-06T04:42:53.207Z,6.80
2019-03-06T04:45:20.696Z,6.80
2019-03-06T04:47:48.166Z,6.62
2019-03-06T04:50:15.721Z,6.45
2019-03-06T04:52:43.155Z,6.53
2019-03-06T04:55:11.374Z,6.55
2019-03-06T04:57:38.773Z,6.57
2019-03-06T05:00:09.543Z,6.71
2019-03-06T05:02:36.937Z,6.84
2019-03-06T05:05:04.353Z,6.91
2019-03-06T05:07:31.782Z,6.86
2019-03-06T05:09:59.228Z,6.82
2019-03-06T05:12:26.627Z,6.82
2019-03-06T05:14:54.097Z,6.82
2019-03-06T05:17:24.003Z,6.73
2019-03-06T05:19:51.402Z,6.61
2019-03-06T05:22:18.830Z,6.60
2019-03-06T05:24:46.242Z,6.72
2019-03-06T05:27:13.638Z,6.75
2019-03-06T05:29:41.083Z,6.80
2019-03-06T05:32:20.316Z,6.71
2019-03-06T05:34:47.782Z,6.43
2019-03-06T05:37:21.145Z,6.34
2019-03-06T05:39:48.579Z,6.31
2019-03-06T05:42:15.990Z,6.33
2019-03-06T05:44:43.384Z,6.39
2019-03-06T05:47:10.773Z,6.32
2019-03-06T05:49:38.266Z,6.32
2019-03-06T05:52:05.756Z,6.44
2019-03-06T05:54:33.162Z,6.43
2019-03-06T05:57:00.571Z,6.43
2019-03-06T05:59:28.002Z,6.42
2019-03-06T06:01:56.452Z,6.54
2019-03-06T06:04:23.851Z,6.62
2019-03-06T06:06:51.474Z,6.60
2019-03-06T06:09:18.931Z,6.52
2019-03-06T06:11:46.341Z,6.54
2019-03-06T06:14:13.749Z,6.69
2019-03-06T06:16:41.193Z,6.77
2019-03-06T06:19:08.636Z,6.91
2019-03-06T06:24:30.168Z,7.33
2019-03-06T06:26:57.701Z,7.25
2019-03-06T06:29:25.165Z,7.07
2019-03-06T06:31:52.657Z,6.99
2019-03-06T06:34:20.057Z,6.96
2019-03-06T06:36:47.490Z,6.99
2019-03-06T06:39:14.927Z,6.97
2019-03-06T06:41:42.386Z,6.93
2019-03-06T06:44:09.794Z,6.91
2019-03-06T06:46:37.211Z,7.00
2019-03-06T06:49:04.669Z,6.99
2019-03-06T06:51:38.750Z,6.98
2019-03-06T06:54:07.208Z,7.05
2019-03-06T06:59:48.932Z,7.50
2019-03-06T07:02:31.711Z,7.41
2019-03-06T07:07:54.529Z,7.81
2019-03-06T07:10:27.543Z,7.64
2019-03-06T07:15:52.851Z,7.83
2019-03-06T07:18:20.267Z,7.81
2019-03-06T07:20:47.779Z,7.69
2019-03-06T07:23:27.237Z,7.36
2019-03-06T07:25:56.175Z,7.22
2019-03-06T07:28:27.167Z,7.11
2019-03-06T07:31:00.113Z,7.19
2019-03-06T07:33:29.073Z,7.33
2019-03-06T07:38:50.453Z,8.15
2019-03-06T07:41:22.560Z,8.23
2019-03-06T07:43:51.742Z,8.28
2019-03-06T07:49:17.632Z,8.66
2019-03-06T07:51:55.023Z,8.75
2019-03-06T07:54:23.143Z,8.84
2019-03-06T07:59:42.729Z,9.08
2019-03-06T08:02:11.054Z,9.02
2019-03-06T08:04:39.749Z,8.91
2019-03-06T08:07:15.979Z,8.90
2019-03-06T08:09:43.374Z,8.91
2019-03-06T08:12:14.776Z,9.01
2019-03-06T08:14:47.765Z,8.81
2019-03-06T08:17:18.578Z,8.87
2019-03-06T08:19:51.738Z,8.96
2019-03-06T08:22:23.046Z,9.04
2019-03-06T08:25:05.373Z,9.00
2019-03-06T08:27:32.903Z,9.08
2019-03-06T08:30:00.596Z,9.29
2019-03-06T08:32:28.192Z,9.39
2019-03-06T08:34:55.635Z,9.59
2019-03-06T08:37:23.147Z,9.76
2019-03-06T08:39:50.675Z,9.88
2019-03-06T08:42:18.189Z,10.03
2019-03-06T08:44:45.688Z,10.30
2019-03-06T08:47:26.078Z,10.66
2019-03-06T08:50:01.140Z,11.07
2019-03-06T08:52:28.644Z,11.37
2019-03-06T08:54:55.635Z,11.63
2019-03-06T08:57:28.273Z,11.91
2019-03-06T08:59:57.103Z,11.96
2019-03-06T09:02:29.681Z,11.93
2019-03-06T09:05:02.299Z,11.77
2019-03-06T09:07:45.136Z,11.74
2019-03-06T09:10:27.010Z,11.90
2019-03-06T09:12:54.632Z,12.14
2019-03-06T09:15:40.618Z,12.20
2019-03-06T09:18:11.358Z,12.09
2019-03-06T09:20:44.174Z,11.91
2019-03-06T09:23:11.829Z,11.90
2019-03-06T09:25:44.509Z,11.97
2019-03-06T09:28:16.380Z,12.05
2019-03-06T09:30:43.332Z,12.08
2019-03-06T09:33:10.274Z,12.11
2019-03-06T09:35:37.887Z,12.12
2019-03-06T09:38:10.922Z,12.14
2019-03-06T09:40:38.417Z,12.09
2019-03-06T09:43:06.729Z,12.01
2019-03-06T09:45:39.442Z,11.99
2019-03-06T09:48:08.963Z,12.01
2019-03-06T09:50:38.801Z,12.03
2019-03-06T09:53:07.679Z,12.04
2019-03-06T09:55:38.652Z,12.03
2019-03-06T10:01:05.598Z,12.19
2019-03-06T10:03:39.618Z,12.21
2019-03-06T10:09:09.231Z,12.32
2019-03-06T10:11:42.255Z,12.38
2019-03-06T10:17:05.634Z,12.83
2019-03-06T10:19:33.166Z,12.96
2019-03-06T10:22:01.031Z,13.13
2019-03-06T10:24:27.981Z,13.25
2019-03-06T10:26:54.944Z,13.46
2019-03-06T10:29:22.194Z,13.53
2019-03-06T10:31:49.236Z,13.72
2019-03-06T10:37:12.332Z,13.79
2019-03-06T10:39:39.314Z,13.73
2019-03-06T10:42:06.367Z,13.81
2019-03-06T10:44:33.435Z,13.90
2019-03-06T10:47:00.498Z,13.76
2019-03-06T10:49:27.511Z,13.86
2019-03-06T10:51:54.574Z,14.25
2019-03-06T10:54:22.183Z,14.70
2019-03-06T10:56:49.614Z,14.82
2019-03-06T10:59:17.062Z,15.00
2019-03-06T11:01:44.526Z,15.06
2019-03-06T11:04:14.534Z,15.41
2019-03-06T11:06:41.956Z,15.69
2019-03-06T11:09:09.654Z,15.92
2019-03-06T11:11:37.104Z,16.66
2019-03-06T11:14:06.400Z,17.30
2019-03-06T11:16:32.447Z,18.01
2019-03-06T11:18:59.908Z,18.24
2019-03-06T11:21:27.484Z,18.26
2019-03-06T11:23:55.016Z,18.65
2019-03-06T11:26:22.416Z,19.03
2019-03-06T11:28:49.860Z,19.27
2019-03-06T11:31:17.316Z,19.46
2019-03-06T11:33:44.718Z,19.92
2019-03-06T11:36:12.145Z,20.03
2019-03-06T11:38:39.610Z,20.18
2019-03-06T11:41:07.064Z,20.37
2019-03-06T11:43:34.674Z,20.48
2019-03-06T11:46:02.143Z,20.67
2019-03-06T11:48:29.803Z,20.88
2019-03-06T11:50:57.249Z,21.08
2019-03-06T11:53:24.918Z,21.22
2019-03-06T11:55:52.344Z,21.24
2019-03-06T11:58:19.816Z,20.67
2019-03-06T12:00:48.004Z,19.84
2019-03-06T12:03:15.540Z,19.16
2019-03-06T12:05:43.027Z,18.71
2019-03-06T12:08:11.205Z,18.28
2019-03-06T12:10:38.635Z,17.82
2019-03-06T12:13:06.851Z,17.47
2019-03-06T12:15:34.335Z,17.22
2019-03-06T12:18:01.820Z,17.10
2019-03-06T12:20:29.402Z,16.98
2019-03-06T12:22:56.812Z,16.99
2019-03-06T12:25:24.506Z,17.07
2019-03-06T12:27:52.066Z,17.11
2019-03-06T12:30:19.509Z,17.18
2019-03-06T12:32:47.192Z,17.23
2019-03-06T12:35:15.785Z,17.23
2019-03-06T12:37:46.958Z,17.02
2019-03-06T12:40:14.723Z,16.88
2019-03-06T12:42:40.369Z,16.67
2019-03-06T12:45:12.197Z,16.70
2019-03-06T12:47:39.952Z,17.01
2019-03-06T12:50:09.888Z,17.35
2019-03-06T12:52:37.630Z,17.19
2019-03-06T12:55:05.310Z,16.92
2019-03-06T12:57:32.719Z,16.75
2019-03-06T13:00:00.256Z,16.57
2019-03-06T13:02:27.555Z,16.53
2019-03-06T13:04:55.067Z,16.47
2019-03-06T13:07:22.513Z,16.44
2019-03-06T13:09:49.966Z,16.49
2019-03-06T13:12:17.390Z,16.35
2019-03-06T13:14:44.889Z,16.13
2019-03-06T13:17:12.501Z,15.91
2019-03-06T13:19:39.953Z,15.75
2019-03-06T13:22:11.391Z,15.78
2019-03-06T13:24:34.908Z,15.86
2019-03-06T13:27:02.348Z,15.86
2019-03-06T13:29:29.767Z,15.85
2019-03-06T13:31:57.348Z,16.09
2019-03-06T13:34:24.892Z,16.31
2019-03-06T13:36:52.310Z,16.55
2019-03-06T13:39:19.822Z,16.59
2019-03-06T13:41:47.222Z,16.41
2019-03-06T13:44:14.656Z,16.17
2019-03-06T13:46:42.178Z,16.01
2019-03-06T13:49:09.712Z,15.88
2019-03-06T13:51:37.244Z,15.86
2019-03-06T13:54:04.681Z,15.84
2019-03-06T13:56:32.231Z,15.85
2019-03-06T13:58:59.729Z,15.88
2019-03-06T14:01:27.201Z,15.85
2019-03-06T14:03:54.674Z,15.82
2019-03-06T14:06:22.134Z,15.80
2019-03-06T14:08:49.572Z,15.63
2019-03-06T14:11:16.979Z,15.30
2019-03-06T14:13:44.936Z,15.08
2019-03-06T14:16:12.404Z,15.17
2019-03-06T14:18:39.835Z,15.25
2019-03-06T14:21:07.278Z,15.11
2019-03-06T14:23:35.433Z,15.03
2019-03-06T14:26:02.229Z,15.06
2019-03-06T14:28:29.864Z,15.13
2019-03-06T14:30:57.423Z,15.23
2019-03-06T14:33:24.877Z,15.33
2019-03-06T14:35:52.299Z,15.35
2019-03-06T14:38:19.788Z,15.29
2019-03-06T14:40:48.421Z,15.21
2019-03-06T14:43:14.702Z,15.09
2019-03-06T14:45:42.296Z,14.94
2019-03-06T14:48:09.761Z,14.82
2019-03-06T14:50:37.207Z,14.63
2019-03-06T14:53:04.849Z,14.49
2019-03-06T14:55:32.297Z,14.41
2019-03-06T14:57:59.805Z,14.39
2019-03-06T15:00:27.218Z,14.34
2019-03-06T15:02:54.716Z,14.24
2019-03-06T15:05:22.418Z,14.25
2019-03-06T15:07:49.842Z,14.25
2019-03-06T15:10:17.333Z,14.29
2019-03-06T15:12:44.783Z,14.21
2019-03-06T15:15:13.106Z,14.13
2019-03-06T15:17:40.701Z,14.05
2019-03-06T15:20:13.320Z,13.96
2019-03-06T15:22:40.806Z,13.83
2019-03-06T15:25:08.294Z,13.77
2019-03-06T15:27:35.708Z,13.67
2019-03-06T15:30:03.123Z,13.59
2019-03-06T15:32:30.742Z,13.52
2019-03-06T15:34:58.201Z,13.42
2019-03-06T15:37:25.716Z,13.20
2019-03-06T15:39:53.150Z,13.02
2019-03-06T15:42:20.584Z,12.80
2019-03-06T15:44:48.026Z,12.67
2019-03-06T15:47:15.432Z,12.65
2019-03-06T15:49:43.239Z,12.41
2019-03-06T15:52:10.646Z,12.21
2019-03-06T15:54:38.074Z,12.18
2019-03-06T15:57:05.532Z,12.07
2019-03-06T15:59:32.936Z,12.11
2019-03-06T16:02:00.654Z,12.22
2019-03-06T16:04:28.220Z,12.13
2019-03-06T16:06:55.694Z,12.08
2019-03-06T16:09:23.111Z,12.05
2019-03-06T16:11:50.669Z,12.00
2019-03-06T16:14:18.202Z,11.91
2019-03-06T16:16:45.627Z,12.03
2019-03-06T16:19:13.243Z,12.08
2019-03-06T16:21:40.741Z,12.14
2019-03-06T16:24:09.764Z,12.18
2019-03-06T16:26:35.791Z,12.14
2019-03-06T16:29:03.207Z,12.20
2019-03-06T16:31:30.620Z,12.32
2019-03-06T16:33:58.160Z,12.38
2019-03-06T16:36:25.568Z,12.20
2019-03-06T16:38:53.114Z,12.12
2019-03-06T16:41:20.508Z,12.19
2019-03-06T16:43:47.952Z,12.27
2019-03-06T16:46:15.872Z,12.22
2019-03-06T16:48:43.336Z,12.09
2019-03-06T16:51:10.755Z,12.03
2019-03-06T16:53:38.177Z,12.01
2019-03-06T16:56:05.666Z,12.05
2019-03-06T16:58:33.108Z,12.10
2019-03-06T17:01:00.555Z,12.11
2019-03-06T17:03:27.967Z,12.09
2019-03-06T17:05:55.476Z,12.12
2019-03-06T17:08:22.944Z,12.24
2019-03-06T17:10:50.339Z,12.33
2019-03-06T17:13:17.751Z,12.35
2019-03-06T17:15:45.253Z,12.25
2019-03-06T17:18:12.711Z,12.24
2019-03-06T17:20:40.297Z,12.29
2019-03-06T17:23:07.727Z,12.25
2019-03-06T17:25:35.226Z,12.21
2019-03-06T17:28:02.641Z,12.15
2019-03-06T17:30:32.294Z,12.13
2019-03-06T17:33:03.905Z,12.02
2019-03-06T17:35:32.278Z,11.94
2019-03-06T17:37:59.686Z,11.85
2019-03-06T17:40:27.120Z,11.78
2019-03-06T17:42:54.610Z,11.87
2019-03-06T17:45:22.030Z,11.96
2019-03-06T17:47:49.505Z,11.93
2019-03-06T17:50:17.079Z,11.97
2019-03-06T17:52:44.642Z,12.02
2019-03-06T17:55:12.293Z,12.01
2019-03-06T17:57:39.836Z,11.87
2019-03-06T18:00:38.995Z,11.76
2019-03-06T18:03:06.593Z,11.78
2019-03-06T18:05:33.999Z,11.76
2019-03-06T18:08:01.459Z,11.80
2019-03-06T18:10:29.046Z,11.90
2019-03-06T18:12:57.556Z,11.93
2019-03-06T18:15:25.011Z,11.96
2019-03-06T18:17:52.933Z,11.97
2019-03-06T18:20:20.404Z,11.90
2019-03-06T18:22:47.886Z,11.84
2019-03-06T18:25:25.763Z,11.83
2019-03-06T18:27:53.231Z,11.80
2019-03-06T18:30:21.030Z,11.74
2019-03-06T18:32:48.475Z,11.58
2019-03-06T18:35:16.865Z,11.40
2019-03-06T18:37:45.491Z,11.35
2019-03-06T18:40:13.859Z,11.31
2019-03-06T18:42:41.424Z,11.27
2019-03-06T18:45:09.832Z,11.36
2019-03-06T18:47:37.278Z,11.49
2019-03-06T18:50:04.736Z,11.57
2019-03-06T18:52:33.031Z,11.58
2019-03-06T18:55:01.423Z,11.66
2019-03-06T18:57:27.843Z,11.64
2019-03-06T18:59:55.263Z,11.51
2019-03-06T19:02:22.700Z,11.40
2019-03-06T19:04:50.482Z,11.37
2019-03-06T19:07:18.713Z,11.50
2019-03-06T19:09:46.267Z,11.62
2019-03-06T19:12:13.675Z,11.71
2019-03-06T19:14:42.507Z,11.77
2019-03-06T19:17:08.569Z,11.82
2019-03-06T19:19:35.989Z,11.84
2019-03-06T19:22:03.471Z,11.89
2019-03-06T19:24:30.872Z,11.93
2019-03-06T19:26:58.309Z,11.93
2019-03-06T19:29:25.710Z,11.93
2019-03-06T19:31:53.216Z,11.93
2019-03-06T19:34:21.144Z,11.97
2019-03-06T19:36:48.630Z,12.00
2019-03-06T19:39:16.056Z,12.02
2019-03-06T19:41:43.476Z,12.03
2019-03-06T19:44:11.006Z,12.00
2019-03-06T19:46:38.470Z,11.85
2019-03-06T19:49:05.948Z,11.75
2019-03-06T19:51:33.380Z,11.80
2019-03-06T19:54:01.043Z,11.81
2019-03-06T19:56:28.517Z,11.81
2019-03-06T19:58:55.985Z,11.83
2019-03-06T20:01:23.424Z,11.88
2019-03-06T20:03:50.871Z,11.88
2019-03-06T20:06:26.741Z,11.91
2019-03-06T20:08:45.719Z,11.88
2019-03-06T20:11:13.166Z,11.86
2019-03-06T20:13:40.602Z,11.88
2019-03-06T20:16:08.075Z,11.87
2019-03-06T20:18:35.497Z,11.71
2019-03-06T20:21:03.049Z,11.52
2019-03-06T20:23:30.534Z,11.49
2019-03-06T20:25:57.977Z,11.43
2019-03-06T20:28:25.411Z,11.45
2019-03-06T20:30:52.849Z,11.49
2019-03-06T20:33:20.486Z,11.52
2019-03-06T20:35:47.999Z,11.42
2019-03-06T20:38:15.448Z,11.39
2019-03-06T20:40:42.850Z,11.43
2019-03-06T20:43:10.283Z,11.51
2019-03-06T20:45:37.837Z,11.52
2019-03-06T20:48:05.263Z,11.59
2019-03-06T20:50:34.570Z,11.67
2019-03-06T20:53:00.152Z,11.71
2019-03-06T20:55:27.671Z,11.70
2019-03-06T20:57:55.095Z,11.68
2019-03-06T21:00:24.153Z,11.64
2019-03-06T21:02:51.578Z,11.61
2019-03-06T21:05:19.031Z,11.67
2019-03-06T21:07:46.493Z,11.70
2019-03-06T21:10:18.572Z,11.68
2019-03-06T21:12:46.022Z,11.55
2019-03-06T21:15:14.343Z,11.51
2019-03-06T21:17:41.758Z,11.53
2019-03-06T21:20:17.783Z,11.49
2019-03-06T21:22:45.265Z,11.52
2019-03-06T21:25:12.766Z,11.52
2019-03-06T21:27:40.200Z,11.49
2019-03-06T21:30:08.509Z,11.44
2019-03-06T21:32:35.937Z,11.25
2019-03-06T21:35:03.471Z,10.99
2019-03-06T21:37:30.886Z,10.88
2019-03-06T21:39:58.689Z,10.96
2019-03-06T21:42:26.271Z,10.96
2019-03-06T21:44:53.853Z,10.92
2019-03-06T21:47:21.381Z,10.92
2019-03-06T21:49:48.969Z,11.03
2019-03-06T21:52:16.388Z,11.16
2019-03-06T21:54:43.812Z,11.26
2019-03-06T21:57:11.758Z,11.35
2019-03-06T21:59:39.201Z,11.30
2019-03-06T22:02:06.660Z,11.24
2019-03-06T22:04:34.052Z,11.28
2019-03-06T22:07:01.504Z,11.36
2019-03-06T22:09:28.985Z,11.27
2019-03-06T22:11:56.405Z,11.31
2019-03-06T22:14:23.945Z,11.37
2019-03-06T22:16:51.485Z,11.41
2019-03-06T22:19:19.005Z,11.39
2019-03-06T22:21:46.517Z,11.22
2019-03-06T22:24:14.095Z,11.15
2019-03-06T22:26:41.504Z,11.20
2019-03-06T22:29:08.968Z,11.27
2019-03-06T22:31:36.382Z,11.32
2019-03-06T22:34:03.823Z,11.37
2019-03-06T22:36:31.226Z,11.28
2019-03-06T22:38:59.111Z,11.17
2019-03-06T22:41:27.282Z,11.27
2019-03-06T22:43:54.765Z,11.28
2019-03-06T22:46:22.163Z,11.29
2019-03-06T22:48:49.585Z,11.36
2019-03-06T22:51:17.077Z,11.31
2019-03-06T22:53:44.504Z,11.27
2019-03-06T22:56:11.926Z,11.28
2019-03-06T22:58:39.344Z,11.34
2019-03-06T23:01:07.347Z,11.39
2019-03-06T23:03:34.802Z,11.43
2019-03-06T23:06:02.259Z,11.32
2019-03-06T23:08:29.670Z,11.25
2019-03-06T23:10:57.089Z,11.08
2019-03-06T23:13:24.500Z,10.98
2019-03-06T23:15:51.910Z,10.94
2019-03-06T23:18:19.341Z,11.07
2019-03-06T23:20:46.744Z,11.19
2019-03-06T23:23:14.183Z,11.24
2019-03-06T23:25:41.611Z,11.31
2019-03-06T23:28:09.007Z,11.40
2019-03-06T23:30:36.498Z,11.42
2019-03-06T23:33:03.931Z,11.39
2019-03-06T23:35:31.345Z,11.30
2019-03-06T23:37:58.781Z,11.17
2019-03-06T23:40:26.178Z,11.09
2019-03-06T23:42:53.711Z,11.07
2019-03-06T23:45:21.157Z,11.11
2019-03-06T23:47:48.560Z,11.16
2019-03-06T23:50:15.976Z,11.20
2019-03-06T23:52:49.089Z,11.27
2019-03-06T23:55:16.516Z,11.31
2019-03-06T23:57:43.933Z,11.37
